Time;durP1;ratioP1;P1;durP2;ratioP2;P2;SDS_P1;SDS_P2;PMS_P1;PMS_P2;Temp;Humidity;BMP_temperature;BMP_pressure;BME280_temperature;BME280_humidity;BME280_pressure;Samples;Min_cycle;Max_cycle;Signal;HPM_P1;HPM_P2
2022/02/25 00:01:10;;;;;;;0.40;0.40;;;;;;;;;;5023724;28;20029;-78
2022/02/25 00:03:36;;;;;;;0.50;0.50;;;;;;;;;;5023405;28;20272;-77
2022/02/25 00:06:02;;;;;;;0.60;0.60;;;;;;;;;;5021626;28;20060;-82
2022/02/25 00:08:28;;;;;;;0.60;0.60;;;;;;;;;;5021427;28;20056;-82
2022/02/25 00:10:54;;;;;;;0.63;0.63;;;;;;;;;;5023442;28;20473;-83
2022/02/25 00:13:20;;;;;;;0.60;0.60;;;;;;;;;;5021614;28;20851;-82
2022/02/25 00:15:46;;;;;;;0.40;0.40;;;;;;;;;;5023286;28;20063;-83
2022/02/25 00:18:12;;;;;;;0.70;0.70;;;;;;;;;;5021142;28;20025;-82
2022/02/25 00:20:39;;;;;;;0.60;0.60;;;;;;;;;;5022795;28;20482;-83
2022/02/25 00:23:05;;;;;;;;;;;;;;;;;;5024023;28;20412;-83
2022/02/25 00:25:31;;;;;;;0.60;0.60;;;;;;;;;;5023301;28;19909;-82
2022/02/25 00:27:57;;;;;;;0.40;0.40;;;;;;;;;;5023538;28;20513;-82
2022/02/25 00:30:23;;;;;;;0.60;0.60;;;;;;;;;;5022988;28;20040;-82
2022/02/25 00:32:49;;;;;;;0.40;0.40;;;;;;;;;;5022726;28;20041;-82
2022/02/25 00:35:16;;;;;;;0.63;0.63;;;;;;;;;;5030535;28;20025;-82
2022/02/25 00:37:42;;;;;;;0.50;0.50;;;;;;;;;;5022440;28;20036;-82
2022/02/25 00:40:09;;;;;;;0.67;0.67;;;;;;;;;;5023137;28;20048;-81
2022/02/25 00:42:35;;;;;;;0.60;0.60;;;;;;;;;;5022807;28;20769;-81
2022/02/25 00:45:02;;;;;;;0.60;0.60;;;;;;;;;;5022899;28;20120;-82
2022/02/25 00:47:28;;;;;;;0.60;0.60;;;;;;;;;;5022561;28;20037;-82
2022/02/25 00:49:54;;;;;;;0.80;0.80;;;;;;;;;;5022531;28;20092;-82
2022/02/25 00:52:20;;;;;;;0.63;0.63;;;;;;;;;;5020530;28;20041;-81
2022/02/25 00:54:46;;;;;;;0.50;0.50;;;;;;;;;;5022938;28;20060;-82
2022/02/25 00:57:12;;;;;;;0.63;0.63;;;;;;;;;;5022355;28;20624;-82
2022/02/25 00:59:38;;;;;;;0.60;0.60;;;;;;;;;;5022582;28;20050;-81
2022/02/25 01:02:05;;;;;;;0.65;0.65;;;;;;;;;;5022548;28;20025;-81
2022/02/25 01:04:31;;;;;;;0.70;0.70;;;;;;;;;;5022264;28;20033;-81
2022/02/25 01:06:57;;;;;;;0.50;0.50;;;;;;;;;;5021382;28;20036;-81
2022/02/25 01:09:24;;;;;;;0.70;0.70;;;;;;;;;;5020686;28;20802;-81
2022/02/25 01:11:50;;;;;;;0.40;0.40;;;;;;;;;;5022413;28;20513;-81
2022/02/25 01:14:16;;;;;;;0.30;0.30;;;;;;;;;;5022423;28;20033;-80
2022/02/25 01:16:42;;;;;;;0.50;0.50;;;;;;;;;;5022429;28;20034;-82
2022/02/25 01:19:08;;;;;;;0.70;0.70;;;;;;;;;;5018651;28;20037;-81
2022/02/25 01:21:34;;;;;;;0.43;0.43;;;;;;;;;;5021039;28;20444;-82
2022/02/25 01:24:00;;;;;;;0.30;0.30;;;;;;;;;;5021543;28;20037;-81
2022/02/25 01:26:27;;;;;;;0.50;0.50;;;;;;;;;;5026266;28;20025;-81
2022/02/25 01:28:54;;;;;;;0.40;0.40;;;;;;;;;;5025045;28;20525;-82
2022/02/25 01:31:22;;;;;;;0.60;0.60;;;;;;;;;;5026360;28;20122;-82
2022/02/25 01:33:48;;;;;;;0.50;0.50;;;;;;;;;;5033292;28;20462;-82
2022/02/25 01:36:14;;;;;;;0.85;0.85;;;;;;;;;;5026299;28;20022;-82
2022/02/25 01:38:40;;;;;;;0.45;0.45;;;;;;;;;;5022162;28;20045;-83
2022/02/25 01:41:06;;;;;;;0.50;0.50;;;;;;;;;;5024575;28;20033;-83
2022/02/25 01:43:32;;;;;;;0.43;0.43;;;;;;;;;;5024759;28;20043;-83
2022/02/25 01:45:58;;;;;;;0.60;0.60;;;;;;;;;;5026473;28;20049;-83
2022/02/25 01:48:25;;;;;;;0.40;0.40;;;;;;;;;;5025692;28;20032;-82
2022/02/25 01:50:51;;;;;;;0.50;0.50;;;;;;;;;;5026031;28;20040;-83
2022/02/25 01:53:20;;;;;;;0.50;0.50;;;;;;;;;;5026376;28;20029;-82
2022/02/25 01:55:47;;;;;;;0.40;0.40;;;;;;;;;;5025573;28;20071;-82
2022/02/25 01:58:14;;;;;;;0.40;0.40;;;;;;;;;;5025833;28;20049;-82
2022/02/25 02:00:40;;;;;;;;;;;;;;;;;;5025770;28;20699;-82
2022/02/25 02:03:06;;;;;;;0.50;0.50;;;;;;;;;;5025701;28;19920;-82
2022/02/25 02:05:33;;;;;;;0.50;0.50;;;;;;;;;;5025886;28;20126;-79
2022/02/25 02:07:59;;;;;;;0.63;0.63;;;;;;;;;;5025658;28;20021;-80
2022/02/25 02:10:25;;;;;;;0.50;0.50;;;;;;;;;;5024563;28;20064;-79
2022/02/25 02:12:52;;;;;;;0.50;0.50;;;;;;;;;;5024054;28;20103;-79
2022/02/25 02:15:18;;;;;;;0.47;0.47;;;;;;;;;;5023724;28;20042;-78
2022/02/25 02:17:44;;;;;;;0.50;0.50;;;;;;;;;;5025202;28;20099;-78
2022/02/25 02:20:10;;;;;;;0.60;0.60;;;;;;;;;;5020849;28;20049;-78
2022/02/25 02:22:36;;;;;;;0.60;0.60;;;;;;;;;;5024647;28;20029;-78
2022/02/25 02:25:03;;;;;;;0.60;0.60;;;;;;;;;;5024043;28;20834;-78
2022/02/25 02:30:16;;;;;;;0.60;0.60;;;;;;;;;;5024804;28;20143;-78
2022/02/25 02:32:42;;;;;;;0.50;0.50;;;;;;;;;;5024800;28;20029;-78
2022/02/25 02:35:08;;;;;;;0.70;0.70;;;;;;;;;;5026814;28;20076;-78
2022/02/25 02:37:34;;;;;;;0.63;0.63;;;;;;;;;;5024958;28;20053;-79
2022/02/25 02:40:00;;;;;;;0.70;0.70;;;;;;;;;;5025607;28;20413;-79
2022/02/25 02:42:26;;;;;;;0.67;0.67;;;;;;;;;;5024525;28;20037;-79
2022/02/25 02:44:52;;;;;;;0.70;0.70;;;;;;;;;;5024084;28;20018;-80
2022/02/25 02:47:18;;;;;;;0.60;0.60;;;;;;;;;;5024947;28;20036;-79
2022/02/25 02:49:44;;;;;;;0.70;0.70;;;;;;;;;;5024690;28;20040;-79
2022/02/25 02:52:10;;;;;;;0.63;0.63;;;;;;;;;;5021604;28;20033;-79
2022/02/25 02:54:36;;;;;;;0.70;0.70;;;;;;;;;;5024731;28;20037;-79
2022/02/25 02:57:03;;;;;;;0.73;0.73;;;;;;;;;;5024061;28;20083;-79
2022/02/25 02:59:29;;;;;;;1.00;1.00;;;;;;;;;;5024264;28;20142;-80
2022/02/25 03:01:55;;;;;;;0.63;0.63;;;;;;;;;;5019817;28;20376;-80
2022/02/25 03:04:21;;;;;;;0.60;0.60;;;;;;;;;;5024129;28;20116;-80
2022/02/25 03:06:47;;;;;;;1.05;1.05;;;;;;;;;;5024833;28;20064;-78
2022/02/25 03:09:13;;;;;;;0.80;0.80;;;;;;;;;;5023713;28;20025;-80
2022/02/25 03:11:40;;;;;;;0.80;0.80;;;;;;;;;;5024003;28;20420;-80
2022/02/25 03:14:06;;;;;;;0.60;0.60;;;;;;;;;;5024579;28;20021;-80
2022/02/25 03:16:32;;;;;;;0.70;0.70;;;;;;;;;;5024152;28;20037;-79
2022/02/25 03:18:58;;;;;;;0.70;0.70;;;;;;;;;;5024594;28;20041;-79
2022/02/25 03:21:24;;;;;;;0.63;0.63;;;;;;;;;;5024013;28;20064;-79
2022/02/25 03:23:51;;;;;;;0.60;0.60;;;;;;;;;;5023951;28;20029;-79
2022/02/25 03:26:17;;;;;;;0.60;0.60;;;;;;;;;;5023838;28;20037;-79
2022/02/25 03:28:43;;;;;;;0.60;0.60;;;;;;;;;;5028818;28;20059;-79
2022/02/25 03:31:09;;;;;;;0.50;0.50;;;;;;;;;;5032048;28;20750;-80
2022/02/25 03:33:35;;;;;;;0.50;0.50;;;;;;;;;;5022334;28;20569;-79
2022/02/25 03:36:01;;;;;;;0.50;0.50;;;;;;;;;;5024913;28;20059;-79
2022/02/25 03:38:27;;;;;;;0.52;0.52;;;;;;;;;;5027172;28;20036;-79
2022/02/25 03:40:53;;;;;;;0.40;0.40;;;;;;;;;;5023637;28;20033;-79
2022/02/25 03:43:19;;;;;;;0.60;0.60;;;;;;;;;;5023536;28;20038;-77
2022/02/25 03:45:45;;;;;;;0.40;0.40;;;;;;;;;;5027928;28;20041;-77
2022/02/25 03:48:12;;;;;;;0.50;0.50;;;;;;;;;;5019201;28;20022;-77
2022/02/25 03:50:39;;;;;;;0.45;0.45;;;;;;;;;;5023362;28;20655;-77
2022/02/25 03:53:05;;;;;;;0.52;0.52;;;;;;;;;;5023658;28;20390;-77
2022/02/25 03:55:31;;;;;;;0.55;0.55;;;;;;;;;;5023243;28;20040;-77
2022/02/25 03:57:57;;;;;;;0.40;0.40;;;;;;;;;;5023712;28;20058;-78
2022/02/25 04:00:23;;;;;;;0.50;0.50;;;;;;;;;;5023087;28;20041;-77
2022/02/25 04:02:49;;;;;;;0.63;0.63;;;;;;;;;;5023541;28;20551;-77
2022/02/25 04:05:15;;;;;;;0.60;0.60;;;;;;;;;;5023077;28;20033;-78
2022/02/25 04:07:42;;;;;;;0.43;0.43;;;;;;;;;;5020880;28;20022;-78
2022/02/25 04:10:08;;;;;;;0.60;0.60;;;;;;;;;;5019518;28;20573;-79
2022/02/25 04:12:35;;;;;;;0.60;0.60;;;;;;;;;;5022578;28;20088;-79
2022/02/25 04:15:01;;;;;;;0.40;0.40;;;;;;;;;;5022350;28;20029;-79
2022/02/25 04:17:27;;;;;;;0.60;0.60;;;;;;;;;;5022822;28;20056;-79
2022/02/25 04:19:53;;;;;;;0.60;0.60;;;;;;;;;;5022159;28;20045;-79
2022/02/25 04:22:19;;;;;;;0.50;0.50;;;;;;;;;;5022469;28;20040;-79
2022/02/25 04:24:45;;;;;;;0.65;0.65;;;;;;;;;;5022825;28;20349;-79
2022/02/25 04:27:11;;;;;;;0.50;0.50;;;;;;;;;;5022915;28;20059;-79
2022/02/25 04:29:37;;;;;;;0.50;0.50;;;;;;;;;;5022466;28;20768;-79
2022/02/25 04:32:03;;;;;;;0.60;0.60;;;;;;;;;;5018613;28;20037;-78
2022/02/25 04:34:29;;;;;;;0.53;0.53;;;;;;;;;;5023100;28;20080;-79
2022/02/25 04:36:56;;;;;;;0.50;0.50;;;;;;;;;;5026402;28;20271;-79
2022/02/25 04:39:22;;;;;;;0.70;0.70;;;;;;;;;;5022669;28;20052;-77
2022/02/25 04:41:48;;;;;;;0.70;0.70;;;;;;;;;;5022958;28;20037;-79
2022/02/25 04:44:14;;;;;;;0.80;0.80;;;;;;;;;;5022328;28;20048;-79
2022/02/25 04:46:40;;;;;;;0.80;0.80;;;;;;;;;;5015612;28;20037;-78
2022/02/25 04:49:06;;;;;;;0.83;0.83;;;;;;;;;;5021995;28;20030;-78
2022/02/25 04:51:33;;;;;;;0.60;0.60;;;;;;;;;;5022143;28;20056;-79
2022/02/25 04:53:59;;;;;;;0.70;0.70;;;;;;;;;;5022193;28;20072;-79
2022/02/25 04:56:25;;;;;;;0.65;0.65;;;;;;;;;;5021634;28;20375;-78
2022/02/25 04:58:52;;;;;;;1.00;1.00;;;;;;;;;;5020613;28;20041;-78
2022/02/25 05:01:18;;;;;;;0.50;0.50;;;;;;;;;;5022674;28;20323;-78
2022/02/25 05:03:44;;;;;;;0.50;0.50;;;;;;;;;;5022567;28;20061;-78
2022/02/25 05:06:10;;;;;;;0.70;0.70;;;;;;;;;;5022567;28;20061;-82
2022/02/25 05:08:36;;;;;;;0.70;0.70;;;;;;;;;;5022182;28;20040;-82
2022/02/25 05:11:02;;;;;;;0.60;0.60;;;;;;;;;;5022032;28;20029;-82
2022/02/25 05:13:28;;;;;;;0.60;0.60;;;;;;;;;;5022307;28;20378;-82
2022/02/25 05:21:24;;;;;;;0.63;0.63;;;;;;;;;;5021735;28;20474;-82
2022/02/25 05:23:50;;;;;;;0.50;0.50;;;;;;;;;;5022073;28;20034;-83
2022/02/25 05:26:16;;;;;;;0.65;0.65;;;;;;;;;;5022288;28;20044;-83
2022/02/25 05:28:42;;;;;;;0.60;0.60;;;;;;;;;;5022290;28;20119;-83
2022/02/25 05:31:08;;;;;;;0.50;0.50;;;;;;;;;;5019793;28;20037;-83
2022/02/25 05:33:34;;;;;;;0.60;0.60;;;;;;;;;;5022273;28;20108;-83
2022/02/25 05:36:00;;;;;;;0.60;0.60;;;;;;;;;;5025302;28;20853;-83
2022/02/25 05:38:26;;;;;;;0.52;0.52;;;;;;;;;;5026005;28;20025;-83
2022/02/25 05:40:52;;;;;;;0.55;0.55;;;;;;;;;;5021771;28;20579;-83
2022/02/25 05:43:18;;;;;;;0.70;0.70;;;;;;;;;;5022184;28;20648;-84
2022/02/25 05:45:44;;;;;;;0.50;0.50;;;;;;;;;;5021240;28;20386;-82
2022/02/25 05:48:11;;;;;;;0.50;0.50;;;;;;;;;;5018124;28;20690;-81
2022/02/25 05:50:37;;;;;;;0.55;0.55;;;;;;;;;;5021813;28;20064;-80
2022/02/25 05:53:03;;;;;;;0.80;0.80;;;;;;;;;;5020908;28;20037;-81
2022/02/25 05:55:29;;;;;;;0.60;0.60;;;;;;;;;;5021700;28;20408;-81
2022/02/25 05:57:55;;;;;;;0.60;0.60;;;;;;;;;;5022421;28;20072;-81
2022/02/25 06:00:22;;;;;;;0.60;0.60;;;;;;;;;;5021292;28;20073;-81
2022/02/25 06:02:48;;;;;;;0.77;0.77;;;;;;;;;;5021901;28;20017;-82
2022/02/25 06:05:15;;;;;;;0.77;0.77;;;;;;;;;;5021266;28;20493;-80
2022/02/25 06:07:41;;;;;;;0.50;0.50;;;;;;;;;;5022641;28;20026;-81
2022/02/25 06:10:07;;;;;;;0.50;0.50;;;;;;;;;;5022834;28;20075;-80
2022/02/25 06:12:33;;;;;;;0.50;0.50;;;;;;;;;;5024687;28;20029;-79
2022/02/25 06:14:59;;;;;;;0.50;0.50;;;;;;;;;;5025442;28;20083;-80
2022/02/25 06:17:25;;;;;;;0.50;0.50;;;;;;;;;;5022877;28;20034;-82
2022/02/25 06:19:51;;;;;;;0.70;0.70;;;;;;;;;;5019932;28;20148;-82
2022/02/25 06:22:17;;;;;;;0.63;0.63;;;;;;;;;;5022825;28;20033;-82
2022/02/25 06:24:43;;;;;;;0.30;0.30;;;;;;;;;;5019697;28;20037;-82
2022/02/25 06:27:10;;;;;;;0.10;0.10;;;;;;;;;;5024810;28;20452;-82
2022/02/25 06:29:36;;;;;;;0.20;0.20;;;;;;;;;;5023800;28;21896;-82
2022/02/25 06:32:02;;;;;;;0.30;0.30;;;;;;;;;;5024561;28;20079;-81
2022/02/25 06:34:28;;;;;;;0.30;0.30;;;;;;;;;;5023213;28;20160;-83
2022/02/25 06:36:54;;;;;;;0.50;0.50;;;;;;;;;;5022627;28;20195;-81
2022/02/25 06:39:20;;;;;;;0.30;0.30;;;;;;;;;;5024931;28;20049;-81
2022/02/25 06:41:46;;;;;;;0.30;0.30;;;;;;;;;;5025071;28;20413;-81
2022/02/25 06:44:12;;;;;;;0.40;0.40;;;;;;;;;;5025199;28;20619;-78
2022/02/25 06:46:38;;;;;;;0.30;0.30;;;;;;;;;;5024987;28;20815;-77
2022/02/25 06:49:04;;;;;;;0.40;0.40;;;;;;;;;;5025863;28;20036;-77
2022/02/25 06:51:30;;;;;;;0.40;0.40;;;;;;;;;;5024576;28;20060;-80
2022/02/25 06:53:57;;;;;;;0.50;0.50;;;;;;;;;;5019283;28;20036;-80
2022/02/25 06:56:23;;;;;;;0.40;0.40;;;;;;;;;;5024574;28;20029;-79
2022/02/25 06:58:49;;;;;;;1.17;1.13;;;;;;;;;;5024797;28;20053;-78
2022/02/25 07:01:15;;;;;;;1.67;1.53;;;;;;;;;;5024823;28;20038;-78
2022/02/25 07:03:41;;;;;;;1.65;1.55;;;;;;;;;;5024559;28;20083;-80
2022/02/25 07:06:08;;;;;;;2.30;2.10;;;;;;;;;;5024723;28;20401;-80
2022/02/25 07:08:34;;;;;;;9.60;4.53;;;;;;;;;;5024571;28;20065;-79
2022/02/25 07:11:00;;;;;;;2.87;2.50;;;;;;;;;;5024558;28;20040;-79
2022/02/25 07:13:26;;;;;;;1.33;1.03;;;;;;;;;;5024279;28;20283;-84
2022/02/25 07:15:53;;;;;;;1.13;1.05;;;;;;;;;;5025005;28;20072;-81
2022/02/25 07:18:19;;;;;;;1.65;1.55;;;;;;;;;;5022393;28;20091;-82
2022/02/25 07:20:47;;;;;;;0.83;0.83;;;;;;;;;;5022189;28;20041;-82
2022/02/25 07:23:13;;;;;;;0.30;0.30;;;;;;;;;;5021318;28;20026;-82
2022/02/25 07:25:40;;;;;;;0.30;0.30;;;;;;;;;;5023945;28;20060;-83
2022/02/25 07:28:07;;;;;;;0.30;0.30;;;;;;;;;;5022746;28;20576;-82
2022/02/25 07:30:33;;;;;;;;;;;;;;;;;;5024455;28;20038;-82
2022/02/25 07:32:59;;;;;;;0.40;0.40;;;;;;;;;;5019590;28;20694;-81
2022/02/25 07:35:26;;;;;;;0.30;0.30;;;;;;;;;;5013778;28;20036;-84
2022/02/25 07:37:52;;;;;;;0.40;0.40;;;;;;;;;;5028662;28;20041;-82
2022/02/25 07:40:19;;;;;;;0.30;0.30;;;;;;;;;;5023824;28;20034;-84
2022/02/25 07:42:45;;;;;;;0.30;0.30;;;;;;;;;;5023995;28;20115;-83
2022/02/25 07:45:12;;;;;;;0.47;0.47;;;;;;;;;;5023467;28;20037;-81
2022/02/25 07:47:38;;;;;;;0.30;0.30;;;;;;;;;;5023602;28;20412;-94
2022/02/25 07:50:05;;;;;;;0.35;0.35;;;;;;;;;;5029543;28;20044;-94
2022/02/25 07:52:31;;;;;;;0.30;0.30;;;;;;;;;;5029990;28;20025;-94
2022/02/25 07:54:57;;;;;;;0.60;0.60;;;;;;;;;;5029481;28;20692;-94
2022/02/25 07:57:23;;;;;;;0.40;0.40;;;;;;;;;;5027990;28;20048;-93
2022/02/25 07:59:50;;;;;;;0.30;0.30;;;;;;;;;;5028355;28;20049;-94
2022/02/25 08:02:16;;;;;;;0.60;0.60;;;;;;;;;;5025599;28;20033;-94
2022/02/25 08:04:42;;;;;;;0.30;0.30;;;;;;;;;;5019754;28;20484;-93
2022/02/25 08:07:08;;;;;;;0.40;0.40;;;;;;;;;;5024057;28;20030;-79
2022/02/25 08:09:34;;;;;;;0.30;0.30;;;;;;;;;;5022237;28;20033;-79
2022/02/25 08:12:00;;;;;;;0.30;0.30;;;;;;;;;;5022289;28;20021;-79
2022/02/25 08:14:26;;;;;;;0.20;0.20;;;;;;;;;;5022401;28;20041;-79
2022/02/25 08:16:52;;;;;;;0.20;0.20;;;;;;;;;;5022093;28;20065;-79
2022/02/25 08:19:19;;;;;;;0.60;0.60;;;;;;;;;;5022623;28;20047;-79
2022/02/25 08:21:45;;;;;;;0.40;0.40;;;;;;;;;;5022301;28;20758;-79
2022/02/25 08:24:11;;;;;;;0.37;0.37;;;;;;;;;;5021721;28;20098;-79
2022/02/25 08:26:37;;;;;;;0.30;0.30;;;;;;;;;;5022284;28;20086;-79
2022/02/25 08:29:03;;;;;;;0.20;0.20;;;;;;;;;;5021802;28;20397;-79
2022/02/25 08:31:29;;;;;;;0.30;0.30;;;;;;;;;;5021684;28;20390;-78
2022/02/25 08:33:55;;;;;;;0.20;0.20;;;;;;;;;;5022523;28;20072;-79
2022/02/25 08:36:21;;;;;;;0.50;0.50;;;;;;;;;;5022609;28;20527;-79
2022/02/25 08:38:47;;;;;;;0.93;0.93;;;;;;;;;;5004067;28;20358;-79
2022/02/25 08:41:13;;;;;;;0.40;0.40;;;;;;;;;;5020728;28;20029;-79
2022/02/25 08:43:42;;;;;;;0.20;0.20;;;;;;;;;;5022257;28;20279;-79
2022/02/25 08:46:08;;;;;;;0.30;0.30;;;;;;;;;;5022648;28;20264;-79
2022/02/25 08:48:35;;;;;;;0.20;0.20;;;;;;;;;;5021656;28;20501;-78
2022/02/25 08:51:01;;;;;;;;;;;;;;;;;;5022436;28;20560;-79
2022/02/25 08:53:27;;;;;;;0.22;0.22;;;;;;;;;;5020314;28;19999;-79
2022/02/25 08:55:53;;;;;;;0.37;0.37;;;;;;;;;;5021708;28;20814;-79
2022/02/25 08:58:20;;;;;;;0.20;0.20;;;;;;;;;;5021874;28;20529;-79
2022/02/25 09:00:46;;;;;;;;;;;;;;;;;;5023293;28;20033;-79
2022/02/25 09:03:12;;;;;;;0.20;0.20;;;;;;;;;;5021808;28;20002;-78
2022/02/25 09:05:38;;;;;;;0.47;0.47;;;;;;;;;;5020233;28;20813;-78
2022/02/25 09:08:04;;;;;;;0.45;0.45;;;;;;;;;;5021507;28;20277;-79
2022/02/25 09:10:30;;;;;;;0.20;0.20;;;;;;;;;;5021366;28;20052;-79
2022/02/25 09:12:56;;;;;;;0.40;0.40;;;;;;;;;;5020145;28;20025;-79
2022/02/25 09:15:26;;;;;;;0.40;0.40;;;;;;;;;;5020141;28;20029;-78
2022/02/25 09:17:56;;;;;;;0.20;0.20;;;;;;;;;;5019479;28;20443;-79
2022/02/25 09:20:22;;;;;;;0.20;0.20;;;;;;;;;;5021517;28;20103;-79
2022/02/25 09:22:49;;;;;;;0.20;0.20;;;;;;;;;;5021972;28;20026;-79
2022/02/25 09:25:15;;;;;;;0.30;0.30;;;;;;;;;;5022113;28;20068;-79
2022/02/25 09:27:41;;;;;;;0.30;0.30;;;;;;;;;;5021921;28;20021;-79
2022/02/25 09:30:09;;;;;;;0.30;0.30;;;;;;;;;;5020955;28;20030;-79
2022/02/25 09:32:35;;;;;;;0.80;0.40;;;;;;;;;;5021253;28;20443;-79
2022/02/25 09:35:01;;;;;;;0.20;0.20;;;;;;;;;;5021120;28;20038;-79
2022/02/25 09:37:29;;;;;;;0.63;0.40;;;;;;;;;;5025055;28;20036;-79
2022/02/25 09:39:55;;;;;;;0.20;0.20;;;;;;;;;;5020734;28;20041;-79
2022/02/25 09:42:22;;;;;;;0.40;0.40;;;;;;;;;;5023747;28;20409;-79
2022/02/25 09:44:48;;;;;;;0.60;0.60;;;;;;;;;;5025019;28;20295;-78
2022/02/25 09:47:15;;;;;;;0.30;0.30;;;;;;;;;;5025208;28;20073;-79
2022/02/25 09:49:41;;;;;;;0.30;0.30;;;;;;;;;;5023474;28;20045;-80
2022/02/25 09:52:11;;;;;;;0.43;0.43;;;;;;;;;;5025780;28;20118;-79
2022/02/25 09:54:37;;;;;;;0.30;0.30;;;;;;;;;;5025238;28;20460;-79
2022/02/25 09:57:03;;;;;;;0.40;0.40;;;;;;;;;;5025434;28;20033;-79
2022/02/25 09:59:29;;;;;;;0.85;0.73;;;;;;;;;;5022915;28;20074;-79
2022/02/25 10:02:02;;;;;;;0.40;0.40;;;;;;;;;;5025705;28;20133;-78
2022/02/25 10:04:28;;;;;;;0.30;0.30;;;;;;;;;;5024667;28;20029;-79
2022/02/25 10:06:54;;;;;;;0.30;0.30;;;;;;;;;;5026431;28;20059;-90
2022/02/25 10:09:34;;;;;;;0.43;0.43;;;;;;;;;;5030385;28;20841;-95
2022/02/25 10:12:10;;;;;;;0.50;0.50;;;;;;;;;;5028898;28;20038;-93
2022/02/25 10:14:40;;;;;;;1.15;0.70;;;;;;;;;;5031091;28;20072;-91
2022/02/25 10:17:10;;;;;;;0.50;0.50;;;;;;;;;;5030730;28;20029;-95
2022/02/25 10:19:36;;;;;;;0.50;0.50;;;;;;;;;;5030834;28;20386;-94
2022/02/25 10:22:16;;;;;;;0.43;0.43;;;;;;;;;;5030851;28;20723;-94
2022/02/25 10:25:08;;;;;;;0.52;0.52;;;;;;;;;;5030636;28;20037;-93
2022/02/25 10:27:36;;;;;;;0.30;0.30;;;;;;;;;;5025931;28;20037;-93
2022/02/25 10:30:02;;;;;;;0.52;0.52;;;;;;;;;;5029353;28;20029;-93
2022/02/25 10:32:39;;;;;;;0.55;0.55;;;;;;;;;;5027252;28;20753;-94
2022/02/25 10:35:22;;;;;;;0.50;0.50;;;;;;;;;;5029740;28;20088;-93
2022/02/25 10:38:08;;;;;;;0.60;0.60;;;;;;;;;;5014384;28;20037;-94
2022/02/25 10:40:34;;;;;;;0.25;0.25;;;;;;;;;;5029821;28;20044;-95
2022/02/25 10:43:00;;;;;;;0.30;0.30;;;;;;;;;;5030216;28;20033;-94
2022/02/25 10:45:38;;;;;;;0.40;0.40;;;;;;;;;;5030055;28;20029;-94
2022/02/25 10:48:07;;;;;;;0.50;0.50;;;;;;;;;;5029090;28;20025;-93
2022/02/25 10:50:43;;;;;;;0.38;0.38;;;;;;;;;;5028417;28;20060;-94
2022/02/25 10:53:09;;;;;;;0.50;0.50;;;;;;;;;;5029637;28;20044;-93
2022/02/25 10:55:35;;;;;;;0.75;0.75;;;;;;;;;;5029397;28;20025;-93
2022/02/25 10:58:02;;;;;;;0.40;0.40;;;;;;;;;;5029396;28;20095;-93
2022/02/25 11:00:28;;;;;;;2.00;1.27;;;;;;;;;;5028572;28;20037;-92
2022/02/25 11:03:01;;;;;;;0.40;0.40;;;;;;;;;;5028803;28;20041;-92
2022/02/25 11:06:03;;;;;;;0.30;0.30;;;;;;;;;;5028737;28;20052;-95
2022/02/25 11:08:29;;;;;;;0.30;0.30;;;;;;;;;;5021368;28;20042;-94
2022/02/25 11:10:55;;;;;;;0.35;0.35;;;;;;;;;;5029538;28;20022;-94
2022/02/25 11:13:22;;;;;;;0.60;0.60;;;;;;;;;;5029242;28;20036;-93
2022/02/25 11:15:48;;;;;;;0.50;0.50;;;;;;;;;;5029690;28;20048;-93
2022/02/25 11:18:15;;;;;;;0.50;0.50;;;;;;;;;;5028966;28;20171;-94
2022/02/25 11:20:41;;;;;;;0.40;0.40;;;;;;;;;;5029265;28;20042;-94
2022/02/25 11:23:07;;;;;;;;;;;;;;;;;;5029622;28;20026;-93
2022/02/25 11:25:35;;;;;;;0.40;0.40;;;;;;;;;;5026079;28;19913;-92
2022/02/25 11:28:01;;;;;;;0.40;0.40;;;;;;;;;;5032196;28;20083;-94
2022/02/25 11:30:33;;;;;;;0.40;0.40;;;;;;;;;;5029172;28;20037;-94
2022/02/25 11:32:59;;;;;;;1.05;1.05;;;;;;;;;;5029199;28;20041;-94
2022/02/25 11:35:27;;;;;;;0.50;0.50;;;;;;;;;;5029665;28;20038;-94
2022/02/25 11:37:59;;;;;;;0.50;0.50;;;;;;;;;;5025694;28;20034;-95
2022/02/25 11:40:44;;;;;;;0.50;0.50;;;;;;;;;;5030219;28;20116;-94
2022/02/25 11:43:10;;;;;;;0.65;0.65;;;;;;;;;;5025697;28;20078;-94
2022/02/25 11:45:47;;;;;;;0.40;0.40;;;;;;;;;;5029871;28;20136;-95
2022/02/25 11:48:17;;;;;;;0.40;0.40;;;;;;;;;;5029639;28;20057;-93
2022/02/25 11:50:43;;;;;;;0.60;0.60;;;;;;;;;;5028832;28;20037;-94
2022/02/25 11:53:26;;;;;;;0.93;0.77;;;;;;;;;;5029676;28;20029;-94
2022/02/25 11:55:53;;;;;;;0.40;0.40;;;;;;;;;;5028525;28;20533;-89
2022/02/25 11:58:38;;;;;;;0.50;0.50;;;;;;;;;;5023394;28;20057;-85
2022/02/25 12:01:05;;;;;;;0.50;0.50;;;;;;;;;;5023692;28;20041;-89
2022/02/25 12:03:34;;;;;;;0.50;0.50;;;;;;;;;;5023032;28;20037;-85
2022/02/25 12:06:00;;;;;;;0.68;0.68;;;;;;;;;;5026093;28;20041;-94
2022/02/25 12:08:27;;;;;;;0.60;0.60;;;;;;;;;;5027701;28;20540;-93
2022/02/25 12:10:54;;;;;;;0.45;0.45;;;;;;;;;;5026440;28;20587;-92
2022/02/25 12:13:22;;;;;;;0.40;0.40;;;;;;;;;;5025511;28;20032;-90
2022/02/25 12:15:49;;;;;;;1.25;0.35;;;;;;;;;;5022063;28;20029;-89
2022/02/25 12:18:17;;;;;;;0.40;0.40;;;;;;;;;;5022968;28;20060;-92
2022/02/25 12:20:44;;;;;;;0.55;0.55;;;;;;;;;;5024844;28;20073;-92
2022/02/25 12:23:11;;;;;;;0.50;0.50;;;;;;;;;;5027325;28;20021;-93
2022/02/25 12:25:37;;;;;;;;;;;;;;;;;;5027687;28;20033;-94
2022/02/25 12:28:07;;;;;;;0.40;0.40;;;;;;;;;;5027952;28;19916;-93
2022/02/25 12:30:37;;;;;;;0.40;0.40;;;;;;;;;;5027311;28;20057;-93
2022/02/25 12:33:23;;;;;;;0.40;0.40;;;;;;;;;;5027528;28;20041;-93
2022/02/25 12:35:49;;;;;;;0.40;0.40;;;;;;;;;;5029143;28;20033;-93
2022/02/25 12:38:15;;;;;;;;;;;;;;;;;;5028327;28;20068;-91
2022/02/25 12:40:41;;;;;;;0.60;0.60;;;;;;;;;;5026722;28;19921;-92
2022/02/25 12:43:07;;;;;;;0.50;0.50;;;;;;;;;;5027486;28;20476;-92
2022/02/25 12:45:37;;;;;;;0.30;0.30;;;;;;;;;;5026135;28;20041;-92
2022/02/25 12:48:03;;;;;;;0.35;0.35;;;;;;;;;;5025804;28;20026;-93
2022/02/25 12:50:29;;;;;;;0.30;0.30;;;;;;;;;;5027026;28;20053;-94
2022/02/25 12:53:03;;;;;;;0.50;0.50;;;;;;;;;;5026964;28;20488;-94
2022/02/25 12:55:29;;;;;;;0.50;0.50;;;;;;;;;;5021689;28;20436;-93
2022/02/25 12:57:55;;;;;;;0.50;0.50;;;;;;;;;;5027194;28;20034;-95
2022/02/25 13:00:21;;;;;;;0.40;0.40;;;;;;;;;;5026473;28;20120;-92
2022/02/25 13:02:54;;;;;;;0.70;0.70;;;;;;;;;;5025145;28;20560;-93
2022/02/25 13:05:21;;;;;;;0.57;0.57;;;;;;;;;;5024569;28;20034;-78
2022/02/25 13:07:59;;;;;;;0.50;0.50;;;;;;;;;;5020333;28;20029;-78
2022/02/25 13:10:25;;;;;;;0.40;0.40;;;;;;;;;;5020178;28;20025;-78
2022/02/25 13:12:51;;;;;;;0.40;0.40;;;;;;;;;;5021306;28;20033;-78
2022/02/25 13:15:24;;;;;;;4.50;0.97;;;;;;;;;;5021105;28;20037;-78
2022/02/25 13:17:50;;;;;;;0.40;0.40;;;;;;;;;;5023707;28;20550;-78
2022/02/25 13:20:18;;;;;;;0.50;0.50;;;;;;;;;;5024313;28;20053;-79
2022/02/25 13:22:45;;;;;;;0.50;0.50;;;;;;;;;;5022040;28;20459;-79
2022/02/25 13:25:18;;;;;;;0.50;0.50;;;;;;;;;;5025820;28;20029;-78
2022/02/25 13:27:50;;;;;;;0.32;0.32;;;;;;;;;;5024365;28;20029;-78
2022/02/25 13:30:30;;;;;;;0.50;0.50;;;;;;;;;;5025015;28;20037;-79
2022/02/25 13:33:00;;;;;;;0.50;0.50;;;;;;;;;;5024968;28;20033;-78
2022/02/25 13:35:37;;;;;;;0.45;0.45;;;;;;;;;;5024926;28;20075;-78
2022/02/25 13:38:04;;;;;;;0.50;0.50;;;;;;;;;;5024541;28;20083;-78
2022/02/25 13:40:32;;;;;;;0.40;0.40;;;;;;;;;;5024517;28;20077;-78
2022/02/25 13:42:59;;;;;;;0.50;0.50;;;;;;;;;;5023290;28;20033;-79
2022/02/25 13:45:43;;;;;;;0.50;0.50;;;;;;;;;;5024626;28;20040;-79
2022/02/25 13:53:55;;;;;;;0.50;0.50;;;;;;;;;;5024491;28;20060;-78
2022/02/25 13:56:26;;;;;;;0.45;0.45;;;;;;;;;;5024875;28;20051;-78
2022/02/25 13:59:00;;;;;;;0.50;0.50;;;;;;;;;;4979666;28;1307338;-78
2022/02/25 14:01:26;;;;;;;0.30;0.30;;;;;;;;;;5026179;28;20041;-78
2022/02/25 14:03:52;;;;;;;0.60;0.60;;;;;;;;;;5026319;28;20034;-78
2022/02/25 14:06:25;;;;;;;0.70;0.70;;;;;;;;;;5026027;28;20025;-78
2022/02/25 14:08:51;;;;;;;0.45;0.45;;;;;;;;;;5025072;28;20025;-79
2022/02/25 14:11:30;;;;;;;0.30;0.30;;;;;;;;;;5025416;28;20087;-78
2022/02/25 14:13:56;;;;;;;0.40;0.40;;;;;;;;;;5010896;28;20033;-79
2022/02/25 14:16:25;;;;;;;0.40;0.40;;;;;;;;;;5025422;28;20033;-78
2022/02/25 14:18:51;;;;;;;0.55;0.55;;;;;;;;;;5024566;28;20164;-78
2022/02/25 14:21:30;;;;;;;0.47;0.47;;;;;;;;;;5025003;28;20048;-79
2022/02/25 14:23:56;;;;;;;0.50;0.50;;;;;;;;;;5025020;28;20280;-78
2022/02/25 14:26:30;;;;;;;0.55;0.55;;;;;;;;;;5024896;28;20029;-78
2022/02/25 14:28:56;;;;;;;0.40;0.40;;;;;;;;;;5024596;28;20468;-78
2022/02/25 14:31:26;;;;;;;0.50;0.50;;;;;;;;;;5025129;28;20791;-78
2022/02/25 14:33:53;;;;;;;0.50;0.50;;;;;;;;;;5024847;28;20292;-78
2022/02/25 14:36:23;;;;;;;0.80;0.80;;;;;;;;;;5030949;28;20140;-78
2022/02/25 14:38:57;;;;;;;0.50;0.50;;;;;;;;;;5031931;28;20676;-78
2022/02/25 14:41:24;;;;;;;0.50;0.50;;;;;;;;;;5024989;28;20156;-78
2022/02/25 14:43:50;;;;;;;0.47;0.47;;;;;;;;;;5024896;28;20033;-78
2022/02/25 14:46:17;;;;;;;0.60;0.60;;;;;;;;;;5025069;28;20034;-78
2022/02/25 14:48:43;;;;;;;0.80;0.80;;;;;;;;;;5024511;28;20473;-78
2022/02/25 14:51:11;;;;;;;0.60;0.60;;;;;;;;;;5024393;28;20039;-78
2022/02/25 14:53:37;;;;;;;0.50;0.50;;;;;;;;;;5024052;28;20765;-78
2022/02/25 14:56:05;;;;;;;0.50;0.50;;;;;;;;;;5024190;28;20029;-77
2022/02/25 14:58:31;;;;;;;0.60;0.60;;;;;;;;;;5024609;28;20100;-78
2022/02/25 15:00:57;;;;;;;0.68;0.65;;;;;;;;;;5024564;28;20081;-77